Lawson Army Air Field (Fort Benning)
KLSF : now visible

Airfield :











YOU CAN JOIN US ON...

 
LOGIN :

Register | Disclaimer

   EN    FR    IT 

 









Legend :    VFR   Marginal VFR   IFR   Intensive IFR   Very Intensive IFR
Visi :
Ceiling :
>= 8 km
>= 3000ft
5 to 8 km
1000 to 3000 ft
1500m to 5 km
500 to 1000 ft
800 to 1500m
200 to 500 ft
< 800m
< 200 ft
Symbols :   Thunderstorms  Fog  Heavy snow  Heavy precipitations  Wind > 20 kt







- Airport Elevation : 232 ft


KLSF - Lawson Army Air Field (Fort Benning)

CURRENT METAR :
  • 181756Z AUTO 18007KT 10SM BKN048 BKN200 27/16 A2991 RMK AO2 SLP132 T02660162 10271 20137 58025 CHINO RWY33 $

EXPIRED METARs :
  • 181656Z AUTO 18011KT 10SM SCT040 SCT200 26/16 A2994 RMK AO2 SLP142 T02630159 CHINO RWY33 $
  • 181636Z AUTO 20011G15KT 10SM SCT038 SCT046 BKN160 BKN200 26/17 A2996 RMK AO2 SLP149 $
  • 181556Z AUTO 17007KT 10SM BKN200 24/18 A2998 RMK AO2 SLP156 T02420184 $

TAF TAF KLSF
Valid from the 18 at 17:00 until the 19 at 23:00 UTC


181700Z 1817/1923 18012KT 9999 FEW030 FEW050 QNH2981INS
BECMG 1820/1821 17012G20KT 9999 BKN025 BKN050 520101 540203 QNH2974INS
BECMG 1903/1904 17015G25KT 6000 SHRA BKN015 550104 QNH2952INS
TEMPO 1908/1911 VRB25G35KT 1600 +TSRA BKN008CB
BECMG 1911/1912 27012G20KT 6000 -SHRA OVC010 510103 QNH2957INS
BECMG 1915/1916 25015G25KT 9999 NSW FEW012 BKN025 510102 QNH2953INS
BECMG 1920/1921 26020G25KT 9999 BKN025 510102 QNH2956INS
BECMG 1922/1923 26020G30KT 9000 -SHRA SCT025 BKN050 520002 QNH2960INS TX27/1821Z TN18/1912Z
KZTL FIR / North America



MET'MAP, your aeronautical weather chart ! - Copyright ORBIFLY December 2007 - Disclaimer

ORBIFLY MET'MAP TEAM :

Programming & Development : Alexandra Zaïnal
Concept & Development : Baudouin d'Aumeries
Co-Development & Prog : Marc-Olivier Méhu
Technical & hardware support : Manuel Goepfert

Contact : metmap@orbifly.com




SOURCES & CREDITS :

   NOAA       Earth
Advisory